This is the latest recevied weather packets stored in our database for station/object KC8UZG. If no packets are shown the sender has not sent any weather packets the latest 10 day(s).
| Time | Temp. | Humidity | Pressure | Rain* | Wind** | Luminosity | Snow |
|---|---|---|---|---|---|---|---|
| 1777297525 | 16.11° C | 82% | 1016 hPa | 0 mm | - | 83 W/m² | - |
| 1777296932 | 15° C | 84% | 1016 hPa | 0 mm | - | 72 W/m² | - |
| 1777296337 | 15° C | 83% | 1016 hPa | 0 mm | - | 68 W/m² | - |
| 1777295717 | 14.44° C | 84% | 1016.1 hPa | 0 mm | - | 68 W/m² | - |
| 1777295123 | 14.44° C | 85% | 1016 hPa | 0 mm | - | 62 W/m² | - |
| 1777294528 | 13.89° C | 86% | 1016 hPa | 0 mm | - | 57 W/m² | - |
| 1777293934 | 13.33° C | 87% | 1016 hPa | 0 mm | - | 54 W/m² | - |
| 1777293340 | 13.33° C | 88% | 1016 hPa | 0 mm | - | 52 W/m² | - |
| 1777292719 | 12.22° C | 89% | 1016 hPa | 0 mm | - | 42 W/m² | - |
| 1777292126 | 12.22° C | 90% | 1016 hPa | 0 mm | - | 33 W/m² | - |
| 1777291531 | 11.67° C | 91% | 1016 hPa | 0 mm | - | 27 W/m² | - |
| 1777290937 | 11.11° C | 93% | 1016 hPa | 0 mm | - | 25 W/m² | - |
| 1777290316 | 10.56° C | 94% | 1016.1 hPa | 0 mm | - | 21 W/m² | - |
| 1777289722 | 10° C | 95% | 1016 hPa | 0 mm | - | 9 W/m² | - |
| 1777289128 | 10° C | 95% | 1016 hPa | 0 mm | - | 7 W/m² | - |
| 1777288535 | 10° C | 96% | 1016 hPa | 0 mm | - | 4 W/m² | - |
| 1777287940 | 9.44° C | 96% | 1016 hPa | 0 mm | - | 0 W/m² | - |
| 1777287319 | 9.44° C | 97% | 1016 hPa | 0 mm | - | 0 W/m² | - |
| 1777286725 | 9.44° C | 97% | 1016 hPa | 0 mm | - | 0 W/m² | - |
| 1777286131 | 9.44° C | 98% | 1016.2 hPa | 0 mm | - | 0 W/m² | - |
| 1777285538 | 8.89° C | 97% | 1016.3 hPa | 0 mm | - | 0 W/m² | - |
| 1777284916 | 9.44° C | 97% | 1016.4 hPa | 0 mm | - | 0 W/m² | - |
| 1777284323 | 9.44° C | 96% | 1016.7 hPa | 0 mm | - | 0 W/m² | - |
| 1777283728 | 9.44° C | 96% | 1016.8 hPa | 0 mm | - | 0 W/m² | - |
| 1777283134 | 10° C | 95% | 1016.7 hPa | 0 mm | - | 0 W/m² | - |
* Rain latest hour (hover to see other rain measurements)
** Current wind speed in m/s (hover to see current wind gust speed)